sensor_id;sensor_type;location;lat;lon;timestamp;P1;durP1;ratioP1;P2;durP2;ratioP2
7142;SDS011;3613;48.902;9.204;2022-09-01T00:01:25;16.20;;;13.90;;
7142;SDS011;3613;48.902;9.204;2022-09-01T00:03:56;17.87;;;14.53;;
7142;SDS011;3613;48.902;9.204;2022-09-01T00:06:27;19.00;;;14.87;;
7142;SDS011;3613;48.902;9.204;2022-09-01T00:08:54;17.77;;;14.33;;
7142;SDS011;3613;48.902;9.204;2022-09-01T00:11:23;16.50;;;14.30;;
7142;SDS011;3613;48.902;9.204;2022-09-01T00:13:50;19.27;;;15.00;;
7142;SDS011;3613;48.902;9.204;2022-09-01T00:16:17;17.63;;;14.37;;
7142;SDS011;3613;48.902;9.204;2022-09-01T00:18:44;18.33;;;14.67;;
7142;SDS011;3613;48.902;9.204;2022-09-01T00:21:13;18.90;;;13.80;;
7142;SDS011;3613;48.902;9.204;2022-09-01T00:23:42;18.03;;;14.17;;
7142;SDS011;3613;48.902;9.204;2022-09-01T00:26:08;16.33;;;13.77;;
7142;SDS011;3613;48.902;9.204;2022-09-01T00:28:37;16.90;;;14.97;;
7142;SDS011;3613;48.902;9.204;2022-09-01T00:31:03;19.07;;;15.43;;
7142;SDS011;3613;48.902;9.204;2022-09-01T00:33:35;16.97;;;14.40;;
7142;SDS011;3613;48.902;9.204;2022-09-01T00:36:01;18.77;;;13.77;;
7142;SDS011;3613;48.902;9.204;2022-09-01T00:38:29;18.83;;;15.03;;
7142;SDS011;3613;48.902;9.204;2022-09-01T00:40:55;18.57;;;14.83;;
7142;SDS011;3613;48.902;9.204;2022-09-01T00:43:35;18.23;;;14.47;;
7142;SDS011;3613;48.902;9.204;2022-09-01T00:46:05;17.00;;;14.03;;
7142;SDS011;3613;48.902;9.204;2022-09-01T00:48:33;20.87;;;15.00;;
7142;SDS011;3613;48.902;9.204;2022-09-01T00:51:02;20.20;;;14.67;;
7142;SDS011;3613;48.902;9.204;2022-09-01T00:53:29;19.53;;;14.43;;
7142;SDS011;3613;48.902;9.204;2022-09-01T00:55:59;17.93;;;14.60;;
7142;SDS011;3613;48.902;9.204;2022-09-01T00:58:26;19.80;;;14.77;;
7142;SDS011;3613;48.902;9.204;2022-09-01T01:00:55;17.40;;;14.13;;
7142;SDS011;3613;48.902;9.204;2022-09-01T01:03:23;19.10;;;14.83;;
7142;SDS011;3613;48.902;9.204;2022-09-01T01:05:54;16.83;;;13.43;;
7142;SDS011;3613;48.902;9.204;2022-09-01T01:08:23;18.77;;;14.27;;
7142;SDS011;3613;48.902;9.204;2022-09-01T01:11:09;16.07;;;13.43;;
7142;SDS011;3613;48.902;9.204;2022-09-01T01:16:37;15.90;;;13.80;;
7142;SDS011;3613;48.902;9.204;2022-09-01T01:19:14;16.60;;;13.90;;
7142;SDS011;3613;48.902;9.204;2022-09-01T01:22:08;16.90;;;13.67;;
7142;SDS011;3613;48.902;9.204;2022-09-01T01:24:59;16.47;;;13.60;;
7142;SDS011;3613;48.902;9.204;2022-09-01T01:27:31;16.37;;;14.40;;
7142;SDS011;3613;48.902;9.204;2022-09-01T01:30:03;18.57;;;14.73;;
7142;SDS011;3613;48.902;9.204;2022-09-01T01:32:31;16.33;;;13.53;;
7142;SDS011;3613;48.902;9.204;2022-09-01T01:34:57;17.90;;;13.27;;
7142;SDS011;3613;48.902;9.204;2022-09-01T01:37:25;16.17;;;13.53;;
7142;SDS011;3613;48.902;9.204;2022-09-01T01:39:53;17.43;;;13.13;;
7142;SDS011;3613;48.902;9.204;2022-09-01T01:42:19;18.90;;;14.43;;
7142;SDS011;3613;48.902;9.204;2022-09-01T01:44:44;17.03;;;13.83;;
7142;SDS011;3613;48.902;9.204;2022-09-01T01:47:13;17.43;;;13.50;;
7142;SDS011;3613;48.902;9.204;2022-09-01T01:49:41;19.47;;;14.27;;
7142;SDS011;3613;48.902;9.204;2022-09-01T01:52:08;16.87;;;14.00;;
7142;SDS011;3613;48.902;9.204;2022-09-01T01:54:36;19.27;;;15.23;;
7142;SDS011;3613;48.902;9.204;2022-09-01T01:57:02;19.90;;;13.97;;
7142;SDS011;3613;48.902;9.204;2022-09-01T01:59:28;17.53;;;14.00;;
7142;SDS011;3613;48.902;9.204;2022-09-01T02:01:54;17.03;;;14.03;;
7142;SDS011;3613;48.902;9.204;2022-09-01T02:04:27;17.83;;;14.87;;
7142;SDS011;3613;48.902;9.204;2022-09-01T02:06:58;20.00;;;14.57;;
7142;SDS011;3613;48.902;9.204;2022-09-01T02:09:24;18.80;;;14.60;;
7142;SDS011;3613;48.902;9.204;2022-09-01T02:11:50;21.77;;;15.13;;
7142;SDS011;3613;48.902;9.204;2022-09-01T02:14:21;22.20;;;15.73;;
7142;SDS011;3613;48.902;9.204;2022-09-01T02:16:49;20.17;;;15.70;;
7142;SDS011;3613;48.902;9.204;2022-09-01T02:19:19;21.30;;;16.73;;
7142;SDS011;3613;48.902;9.204;2022-09-01T02:21:45;21.03;;;16.77;;
7142;SDS011;3613;48.902;9.204;2022-09-01T02:24:18;24.27;;;16.60;;
7142;SDS011;3613;48.902;9.204;2022-09-01T02:26:44;22.13;;;15.93;;
7142;SDS011;3613;48.902;9.204;2022-09-01T02:29:12;21.23;;;16.03;;
7142;SDS011;3613;48.902;9.204;2022-09-01T02:31:46;24.97;;;17.07;;
7142;SDS011;3613;48.902;9.204;2022-09-01T02:34:17;23.20;;;17.03;;
7142;SDS011;3613;48.902;9.204;2022-09-01T02:36:48;22.03;;;16.40;;
7142;SDS011;3613;48.902;9.204;2022-09-01T02:39:16;21.30;;;16.87;;
7142;SDS011;3613;48.902;9.204;2022-09-01T02:41:44;24.20;;;17.67;;
7142;SDS011;3613;48.902;9.204;2022-09-01T02:44:09;21.03;;;16.47;;
7142;SDS011;3613;48.902;9.204;2022-09-01T02:46:39;23.90;;;18.00;;
7142;SDS011;3613;48.902;9.204;2022-09-01T02:49:10;25.87;;;18.07;;
7142;SDS011;3613;48.902;9.204;2022-09-01T02:51:41;22.87;;;17.23;;
7142;SDS011;3613;48.902;9.204;2022-09-01T02:54:12;21.87;;;17.07;;
7142;SDS011;3613;48.902;9.204;2022-09-01T02:56:48;22.17;;;17.33;;
7142;SDS011;3613;48.902;9.204;2022-09-01T02:59:17;26.73;;;19.23;;
7142;SDS011;3613;48.902;9.204;2022-09-01T03:01:48;23.33;;;17.90;;
7142;SDS011;3613;48.902;9.204;2022-09-01T03:04:21;26.00;;;18.33;;
7142;SDS011;3613;48.902;9.204;2022-09-01T03:06:50;26.40;;;19.07;;
7142;SDS011;3613;48.902;9.204;2022-09-01T03:09:22;26.17;;;19.37;;
7142;SDS011;3613;48.902;9.204;2022-09-01T03:11:49;26.60;;;19.17;;
7142;SDS011;3613;48.902;9.204;2022-09-01T03:14:16;25.70;;;19.83;;
7142;SDS011;3613;48.902;9.204;2022-09-01T03:16:46;29.27;;;19.47;;
7142;SDS011;3613;48.902;9.204;2022-09-01T03:19:12;27.17;;;18.93;;
7142;SDS011;3613;48.902;9.204;2022-09-01T03:21:40;27.40;;;19.83;;
7142;SDS011;3613;48.902;9.204;2022-09-01T03:24:08;30.87;;;20.77;;
7142;SDS011;3613;48.902;9.204;2022-09-01T03:26:39;29.77;;;20.70;;
7142;SDS011;3613;48.902;9.204;2022-09-01T03:29:08;28.57;;;20.27;;
7142;SDS011;3613;48.902;9.204;2022-09-01T03:31:34;29.53;;;21.23;;
7142;SDS011;3613;48.902;9.204;2022-09-01T03:34:00;32.73;;;21.97;;
7142;SDS011;3613;48.902;9.204;2022-09-01T03:36:27;31.33;;;22.67;;
7142;SDS011;3613;48.902;9.204;2022-09-01T03:38:57;32.00;;;21.53;;
7142;SDS011;3613;48.902;9.204;2022-09-01T03:41:28;33.83;;;22.20;;
7142;SDS011;3613;48.902;9.204;2022-09-01T03:43:55;29.50;;;21.50;;
7142;SDS011;3613;48.902;9.204;2022-09-01T03:46:27;32.97;;;21.27;;
7142;SDS011;3613;48.902;9.204;2022-09-01T03:48:56;32.50;;;23.13;;
7142;SDS011;3613;48.902;9.204;2022-09-01T03:51:27;33.63;;;22.17;;
7142;SDS011;3613;48.902;9.204;2022-09-01T03:53:55;30.90;;;21.00;;
7142;SDS011;3613;48.902;9.204;2022-09-01T03:56:22;31.17;;;21.07;;
7142;SDS011;3613;48.902;9.204;2022-09-01T03:58:51;30.23;;;21.20;;
7142;SDS011;3613;48.902;9.204;2022-09-01T04:01:18;33.57;;;22.20;;
7142;SDS011;3613;48.902;9.204;2022-09-01T04:03:44;32.40;;;22.13;;
7142;SDS011;3613;48.902;9.204;2022-09-01T04:06:15;32.93;;;22.63;;
7142;SDS011;3613;48.902;9.204;2022-09-01T04:08:44;35.53;;;22.60;;
7142;SDS011;3613;48.902;9.204;2022-09-01T04:11:15;38.10;;;23.67;;
7142;SDS011;3613;48.902;9.204;2022-09-01T04:13:43;33.17;;;21.77;;
7142;SDS011;3613;48.902;9.204;2022-09-01T04:16:22;37.93;;;24.77;;
7142;SDS011;3613;48.902;9.204;2022-09-01T04:19:12;38.60;;;25.93;;
7142;SDS011;3613;48.902;9.204;2022-09-01T04:21:43;36.40;;;25.43;;
7142;SDS011;3613;48.902;9.204;2022-09-01T04:24:14;40.83;;;25.83;;
7142;SDS011;3613;48.902;9.204;2022-09-01T04:26:43;40.13;;;25.93;;
7142;SDS011;3613;48.902;9.204;2022-09-01T04:29:11;41.73;;;25.50;;
7142;SDS011;3613;48.902;9.204;2022-09-01T04:31:45;41.73;;;26.23;;
7142;SDS011;3613;48.902;9.204;2022-09-01T04:34:15;45.33;;;27.43;;
7142;SDS011;3613;48.902;9.204;2022-09-01T04:36:42;42.60;;;27.60;;
7142;SDS011;3613;48.902;9.204;2022-09-01T04:39:09;41.40;;;26.70;;
7142;SDS011;3613;48.902;9.204;2022-09-01T04:41:41;46.10;;;27.83;;
7142;SDS011;3613;48.902;9.204;2022-09-01T04:44:15;45.93;;;28.67;;
7142;SDS011;3613;48.902;9.204;2022-09-01T04:46:43;41.60;;;27.07;;
7142;SDS011;3613;48.902;9.204;2022-09-01T04:49:14;45.80;;;29.10;;
7142;SDS011;3613;48.902;9.204;2022-09-01T04:51:47;44.20;;;28.03;;
7142;SDS011;3613;48.902;9.204;2022-09-01T04:54:14;45.43;;;27.90;;
7142;SDS011;3613;48.902;9.204;2022-09-01T04:56:41;44.17;;;27.70;;
7142;SDS011;3613;48.902;9.204;2022-09-01T04:59:09;43.83;;;27.53;;
7142;SDS011;3613;48.902;9.204;2022-09-01T05:01:39;45.47;;;28.87;;
7142;SDS011;3613;48.902;9.204;2022-09-01T05:04:18;50.10;;;29.37;;
7142;SDS011;3613;48.902;9.204;2022-09-01T05:06:47;44.67;;;28.87;;
7142;SDS011;3613;48.902;9.204;2022-09-01T05:09:18;39.60;;;25.87;;
7142;SDS011;3613;48.902;9.204;2022-09-01T05:11:44;38.43;;;25.47;;
7142;SDS011;3613;48.902;9.204;2022-09-01T05:14:12;30.23;;;22.33;;
7142;SDS011;3613;48.902;9.204;2022-09-01T05:16:42;25.87;;;19.83;;
7142;SDS011;3613;48.902;9.204;2022-09-01T05:19:08;23.30;;;17.83;;
7142;SDS011;3613;48.902;9.204;2022-09-01T05:21:39;21.60;;;15.80;;
7142;SDS011;3613;48.902;9.204;2022-09-01T05:24:09;19.93;;;15.50;;
7142;SDS011;3613;48.902;9.204;2022-09-01T05:26:36;19.50;;;14.47;;
7142;SDS011;3613;48.902;9.204;2022-09-01T05:29:05;17.03;;;14.23;;
7142;SDS011;3613;48.902;9.204;2022-09-01T05:31:37;16.77;;;14.37;;
7142;SDS011;3613;48.902;9.204;2022-09-01T05:34:05;17.00;;;13.30;;
7142;SDS011;3613;48.902;9.204;2022-09-01T05:36:33;16.47;;;13.40;;
7142;SDS011;3613;48.902;9.204;2022-09-01T05:39:02;16.43;;;13.63;;
7142;SDS011;3613;48.902;9.204;2022-09-01T05:41:29;16.80;;;13.17;;
7142;SDS011;3613;48.902;9.204;2022-09-01T05:43:54;17.30;;;13.87;;
7142;SDS011;3613;48.902;9.204;2022-09-01T05:46:23;15.73;;;13.10;;
7142;SDS011;3613;48.902;9.204;2022-09-01T05:48:51;16.97;;;12.97;;
7142;SDS011;3613;48.902;9.204;2022-09-01T05:51:21;15.03;;;11.80;;
7142;SDS011;3613;48.902;9.204;2022-09-01T05:53:51;17.73;;;12.37;;
7142;SDS011;3613;48.902;9.204;2022-09-01T05:56:23;17.53;;;11.77;;
7142;SDS011;3613;48.902;9.204;2022-09-01T05:58:53;14.83;;;12.37;;
7142;SDS011;3613;48.902;9.204;2022-09-01T06:01:25;15.27;;;12.00;;
7142;SDS011;3613;48.902;9.204;2022-09-01T06:03:53;14.60;;;11.73;;
7142;SDS011;3613;48.902;9.204;2022-09-01T06:06:21;14.87;;;13.03;;
7142;SDS011;3613;48.902;9.204;2022-09-01T06:08:51;14.90;;;11.67;;
7142;SDS011;3613;48.902;9.204;2022-09-01T06:11:23;17.47;;;12.17;;
7142;SDS011;3613;48.902;9.204;2022-09-01T06:13:51;14.50;;;13.10;;
7142;SDS011;3613;48.902;9.204;2022-09-01T06:16:20;17.03;;;13.20;;
7142;SDS011;3613;48.902;9.204;2022-09-01T06:18:48;15.87;;;12.83;;
7142;SDS011;3613;48.902;9.204;2022-09-01T06:21:18;15.30;;;12.97;;
7142;SDS011;3613;48.902;9.204;2022-09-01T06:23:48;15.30;;;13.17;;
7142;SDS011;3613;48.902;9.204;2022-09-01T06:26:18;15.47;;;12.73;;
7142;SDS011;3613;48.902;9.204;2022-09-01T06:28:56;15.33;;;13.60;;
7142;SDS011;3613;48.902;9.204;2022-09-01T06:31:28;15.97;;;13.30;;
7142;SDS011;3613;48.902;9.204;2022-09-01T06:34:03;13.90;;;12.37;;
7142;SDS011;3613;48.902;9.204;2022-09-01T06:36:31;15.33;;;11.97;;
7142;SDS011;3613;48.902;9.204;2022-09-01T06:39:04;16.30;;;13.17;;
7142;SDS011;3613;48.902;9.204;2022-09-01T06:41:30;15.37;;;13.73;;
7142;SDS011;3613;48.902;9.204;2022-09-01T06:44:01;14.47;;;12.47;;
7142;SDS011;3613;48.902;9.204;2022-09-01T06:46:26;15.27;;;13.20;;
7142;SDS011;3613;48.902;9.204;2022-09-01T06:48:58;14.40;;;12.90;;
7142;SDS011;3613;48.902;9.204;2022-09-01T06:51:24;15.40;;;12.97;;
7142;SDS011;3613;48.902;9.204;2022-09-01T06:53:55;13.77;;;12.37;;
7142;SDS011;3613;48.902;9.204;2022-09-01T06:56:25;14.50;;;12.43;;
7142;SDS011;3613;48.902;9.204;2022-09-01T06:58:56;13.13;;;11.23;;
7142;SDS011;3613;48.902;9.204;2022-09-01T07:01:25;12.67;;;11.37;;
7142;SDS011;3613;48.902;9.204;2022-09-01T07:03:52;12.37;;;10.93;;
7142;SDS011;3613;48.902;9.204;2022-09-01T07:06:19;13.63;;;10.73;;
7142;SDS011;3613;48.902;9.204;2022-09-01T07:08:51;11.53;;;10.33;;
7142;SDS011;3613;48.902;9.204;2022-09-01T07:11:24;12.33;;;11.00;;
7142;SDS011;3613;48.902;9.204;2022-09-01T07:13:56;10.30;;;9.30;;
7142;SDS011;3613;48.902;9.204;2022-09-01T07:16:26;9.87;;;8.87;;
7142;SDS011;3613;48.902;9.204;2022-09-01T07:18:54;9.80;;;8.77;;
7142;SDS011;3613;48.902;9.204;2022-09-01T07:21:22;11.20;;;9.93;;
7142;SDS011;3613;48.902;9.204;2022-09-01T07:23:52;10.80;;;9.70;;
7142;SDS011;3613;48.902;9.204;2022-09-01T07:26:19;10.70;;;8.90;;
7142;SDS011;3613;48.902;9.204;2022-09-01T07:28:48;9.80;;;8.40;;
7142;SDS011;3613;48.902;9.204;2022-09-01T07:31:20;10.73;;;9.00;;
7142;SDS011;3613;48.902;9.204;2022-09-01T07:33:49;12.03;;;9.23;;
7142;SDS011;3613;48.902;9.204;2022-09-01T07:36:16;10.50;;;9.43;;
7142;SDS011;3613;48.902;9.204;2022-09-01T07:38:42;10.10;;;8.93;;
7142;SDS011;3613;48.902;9.204;2022-09-01T07:41:21;9.70;;;8.60;;
7142;SDS011;3613;48.902;9.204;2022-09-01T07:43:51;9.20;;;8.20;;
7142;SDS011;3613;48.902;9.204;2022-09-01T07:46:19;9.27;;;8.37;;
7142;SDS011;3613;48.902;9.204;2022-09-01T07:48:47;9.40;;;7.80;;
7142;SDS011;3613;48.902;9.204;2022-09-01T07:51:14;8.63;;;7.73;;
7142;SDS011;3613;48.902;9.204;2022-09-01T07:53:44;9.37;;;7.33;;
7142;SDS011;3613;48.902;9.204;2022-09-01T07:56:12;9.07;;;7.33;;
7142;SDS011;3613;48.902;9.204;2022-09-01T07:58:39;8.53;;;7.20;;
7142;SDS011;3613;48.902;9.204;2022-09-01T08:01:09;7.50;;;6.80;;
7142;SDS011;3613;48.902;9.204;2022-09-01T08:03:39;7.07;;;6.37;;
7142;SDS011;3613;48.902;9.204;2022-09-01T08:06:09;7.83;;;6.97;;
7142;SDS011;3613;48.902;9.204;2022-09-01T08:08:43;8.33;;;7.23;;
7142;SDS011;3613;48.902;9.204;2022-09-01T08:11:18;8.57;;;7.13;;
7142;SDS011;3613;48.902;9.204;2022-09-01T08:13:51;9.27;;;7.67;;
7142;SDS011;3613;48.902;9.204;2022-09-01T08:16:18;9.63;;;7.73;;
7142;SDS011;3613;48.902;9.204;2022-09-01T08:18:46;8.60;;;7.70;;
7142;SDS011;3613;48.902;9.204;2022-09-01T08:21:13;8.47;;;7.43;;
7142;SDS011;3613;48.902;9.204;2022-09-01T08:23:39;8.73;;;7.70;;
7142;SDS011;3613;48.902;9.204;2022-09-01T08:26:07;9.07;;;8.03;;
7142;SDS011;3613;48.902;9.204;2022-09-01T08:28:34;8.40;;;7.60;;
7142;SDS011;3613;48.902;9.204;2022-09-01T08:31:04;7.80;;;7.00;;
7142;SDS011;3613;48.902;9.204;2022-09-01T08:33:31;8.87;;;7.73;;
7142;SDS011;3613;48.902;9.204;2022-09-01T08:36:01;10.07;;;8.50;;
7142;SDS011;3613;48.902;9.204;2022-09-01T08:38:29;8.20;;;7.20;;
7142;SDS011;3613;48.902;9.204;2022-09-01T08:40:56;8.10;;;7.23;;
7142;SDS011;3613;48.902;9.204;2022-09-01T08:43:31;7.77;;;6.63;;
7142;SDS011;3613;48.902;9.204;2022-09-01T08:46:22;7.17;;;6.30;;
7142;SDS011;3613;48.902;9.204;2022-09-01T08:48:50;7.73;;;6.93;;
7142;SDS011;3613;48.902;9.204;2022-09-01T08:51:38;8.13;;;7.30;;
7142;SDS011;3613;48.902;9.204;2022-09-01T08:56:36;7.50;;;6.47;;
7142;SDS011;3613;48.902;9.204;2022-09-01T08:59:03;7.80;;;6.37;;
7142;SDS011;3613;48.902;9.204;2022-09-01T09:01:40;8.77;;;6.80;;
7142;SDS011;3613;48.902;9.204;2022-09-01T09:04:30;6.77;;;6.07;;
7142;SDS011;3613;48.902;9.204;2022-09-01T09:07:09;8.83;;;6.63;;
7142;SDS011;3613;48.902;9.204;2022-09-01T09:17:51;7.57;;;6.77;;
7142;SDS011;3613;48.902;9.204;2022-09-01T09:20:23;7.30;;;6.50;;
7142;SDS011;3613;48.902;9.204;2022-09-01T09:22:53;6.90;;;6.17;;
7142;SDS011;3613;48.902;9.204;2022-09-01T09:25:21;8.03;;;6.37;;
7142;SDS011;3613;48.902;9.204;2022-09-01T09:27:50;8.23;;;6.20;;
7142;SDS011;3613;48.902;9.204;2022-09-01T09:30:19;6.83;;;6.10;;
7142;SDS011;3613;48.902;9.204;2022-09-01T09:32:55;7.43;;;6.17;;
7142;SDS011;3613;48.902;9.204;2022-09-01T09:37:54;6.30;;;5.43;;
7142;SDS011;3613;48.902;9.204;2022-09-01T09:40:23;6.23;;;5.63;;
7142;SDS011;3613;48.902;9.204;2022-09-01T09:47:47;5.37;;;4.63;;
7142;SDS011;3613;48.902;9.204;2022-09-01T09:50:23;5.50;;;4.83;;
7142;SDS011;3613;48.902;9.204;2022-09-01T09:55:52;7.00;;;4.87;;
7142;SDS011;3613;48.902;9.204;2022-09-01T09:58:24;7.00;;;4.90;;
7142;SDS011;3613;48.902;9.204;2022-09-01T10:01:00;4.67;;;4.23;;
7142;SDS011;3613;48.902;9.204;2022-09-01T10:08:54;4.53;;;4.10;;
7142;SDS011;3613;48.902;9.204;2022-09-01T10:11:25;5.00;;;4.50;;
7142;SDS011;3613;48.902;9.204;2022-09-01T10:14:09;5.23;;;4.20;;
7142;SDS011;3613;48.902;9.204;2022-09-01T10:16:39;6.83;;;4.33;;
7142;SDS011;3613;48.902;9.204;2022-09-01T10:19:10;4.60;;;4.27;;
7142;SDS011;3613;48.902;9.204;2022-09-01T10:21:38;4.40;;;4.00;;
7142;SDS011;3613;48.902;9.204;2022-09-01T10:26:54;4.53;;;4.10;;
7142;SDS011;3613;48.902;9.204;2022-09-01T10:31:54;3.93;;;3.60;;
7142;SDS011;3613;48.902;9.204;2022-09-01T10:34:20;4.53;;;4.00;;
7142;SDS011;3613;48.902;9.204;2022-09-01T10:36:50;5.73;;;4.20;;
7142;SDS011;3613;48.902;9.204;2022-09-01T10:39:19;3.93;;;3.53;;
7142;SDS011;3613;48.902;9.204;2022-09-01T10:41:48;4.17;;;3.70;;
7142;SDS011;3613;48.902;9.204;2022-09-01T10:46:46;3.67;;;3.37;;
7142;SDS011;3613;48.902;9.204;2022-09-01T10:49:55;4.10;;;3.70;;
7142;SDS011;3613;48.902;9.204;2022-09-01T10:51:57;4.60;;;4.03;;
7142;SDS011;3613;48.902;9.204;2022-09-01T10:57:11;3.77;;;3.47;;
7142;SDS011;3613;48.902;9.204;2022-09-01T11:01:05;4.20;;;3.80;;
7142;SDS011;3613;48.902;9.204;2022-09-01T11:16:23;4.00;;;3.17;;
7142;SDS011;3613;48.902;9.204;2022-09-01T11:18:49;3.83;;;3.50;;
7142;SDS011;3613;48.902;9.204;2022-09-01T11:26:56;4.00;;;3.60;;
7142;SDS011;3613;48.902;9.204;2022-09-01T11:32:17;3.90;;;3.50;;
7142;SDS011;3613;48.902;9.204;2022-09-01T11:34:44;3.60;;;3.30;;
7142;SDS011;3613;48.902;9.204;2022-09-01T11:37:16;4.67;;;3.63;;
7142;SDS011;3613;48.902;9.204;2022-09-01T11:39:47;4.20;;;3.80;;
7142;SDS011;3613;48.902;9.204;2022-09-01T11:42:18;4.70;;;3.50;;
7142;SDS011;3613;48.902;9.204;2022-09-01T11:44:51;5.03;;;3.77;;
7142;SDS011;3613;48.902;9.204;2022-09-01T11:47:41;3.30;;;3.00;;
7142;SDS011;3613;48.902;9.204;2022-09-01T11:50:20;3.50;;;3.20;;
7142;SDS011;3613;48.902;9.204;2022-09-01T11:52:57;4.60;;;3.30;;
7142;SDS011;3613;48.902;9.204;2022-09-01T11:55:31;3.77;;;3.20;;
7142;SDS011;3613;48.902;9.204;2022-09-01T11:58:03;3.90;;;3.60;;
7142;SDS011;3613;48.902;9.204;2022-09-01T12:00:30;3.83;;;3.53;;
7142;SDS011;3613;48.902;9.204;2022-09-01T12:03:02;3.50;;;3.20;;
7142;SDS011;3613;48.902;9.204;2022-09-01T12:05:47;5.20;;;3.23;;
7142;SDS011;3613;48.902;9.204;2022-09-01T12:08:23;3.80;;;3.50;;
7142;SDS011;3613;48.902;9.204;2022-09-01T12:10:59;3.60;;;3.30;;
7142;SDS011;3613;48.902;9.204;2022-09-01T12:13:32;3.47;;;3.17;;
7142;SDS011;3613;48.902;9.204;2022-09-01T12:16:04;3.80;;;3.33;;
7142;SDS011;3613;48.902;9.204;2022-09-01T12:18:33;3.80;;;3.27;;
7142;SDS011;3613;48.902;9.204;2022-09-01T12:21:16;3.80;;;3.50;;
7142;SDS011;3613;48.902;9.204;2022-09-01T12:23:47;4.53;;;3.50;;
7142;SDS011;3613;48.902;9.204;2022-09-01T12:26:18;4.23;;;3.73;;
7142;SDS011;3613;48.902;9.204;2022-09-01T12:28:53;3.80;;;3.50;;
7142;SDS011;3613;48.902;9.204;2022-09-01T12:31:21;3.97;;;3.50;;
7142;SDS011;3613;48.902;9.204;2022-09-01T12:33:50;4.10;;;3.70;;
7142;SDS011;3613;48.902;9.204;2022-09-01T12:38:49;3.63;;;3.20;;
7142;SDS011;3613;48.902;9.204;2022-09-01T12:41:25;3.60;;;3.30;;
7142;SDS011;3613;48.902;9.204;2022-09-01T12:47:10;3.07;;;2.77;;
7142;SDS011;3613;48.902;9.204;2022-09-01T12:49:57;3.40;;;3.10;;
7142;SDS011;3613;48.902;9.204;2022-09-01T12:52:26;3.40;;;3.10;;
7142;SDS011;3613;48.902;9.204;2022-09-01T12:57:38;3.50;;;3.20;;
7142;SDS011;3613;48.902;9.204;2022-09-01T13:02:36;3.80;;;3.50;;
7142;SDS011;3613;48.902;9.204;2022-09-01T13:05:30;4.20;;;3.73;;
7142;SDS011;3613;48.902;9.204;2022-09-01T13:08:00;4.40;;;4.00;;
7142;SDS011;3613;48.902;9.204;2022-09-01T13:10:30;4.07;;;3.67;;
7142;SDS011;3613;48.902;9.204;2022-09-01T13:12:58;3.43;;;3.13;;
7142;SDS011;3613;48.902;9.204;2022-09-01T13:15:24;3.70;;;3.40;;
7142;SDS011;3613;48.902;9.204;2022-09-01T13:17:52;4.80;;;3.63;;
7142;SDS011;3613;48.902;9.204;2022-09-01T13:20:18;3.93;;;3.50;;
7142;SDS011;3613;48.902;9.204;2022-09-01T13:22:46;3.87;;;3.57;;
7142;SDS011;3613;48.902;9.204;2022-09-01T13:25:15;4.00;;;3.67;;
7142;SDS011;3613;48.902;9.204;2022-09-01T13:27:44;3.77;;;3.47;;
7142;SDS011;3613;48.902;9.204;2022-09-01T13:30:11;3.50;;;3.20;;
7142;SDS011;3613;48.902;9.204;2022-09-01T13:32:39;4.13;;;3.73;;
7142;SDS011;3613;48.902;9.204;2022-09-01T13:35:06;3.33;;;3.10;;
7142;SDS011;3613;48.902;9.204;2022-09-01T13:37:32;3.60;;;3.30;;
7142;SDS011;3613;48.902;9.204;2022-09-01T13:39:58;3.70;;;3.40;;
7142;SDS011;3613;48.902;9.204;2022-09-01T13:42:26;3.53;;;3.23;;
7142;SDS011;3613;48.902;9.204;2022-09-01T13:44:51;4.00;;;3.13;;
7142;SDS011;3613;48.902;9.204;2022-09-01T13:47:22;3.63;;;3.33;;
7142;SDS011;3613;48.902;9.204;2022-09-01T13:49:48;3.20;;;2.87;;
7142;SDS011;3613;48.902;9.204;2022-09-01T13:52:14;4.03;;;2.87;;
7142;SDS011;3613;48.902;9.204;2022-09-01T13:54:42;3.43;;;3.10;;
7142;SDS011;3613;48.902;9.204;2022-09-01T13:57:09;4.53;;;3.20;;
7142;SDS011;3613;48.902;9.204;2022-09-01T13:59:37;3.60;;;3.30;;
7142;SDS011;3613;48.902;9.204;2022-09-01T14:02:04;3.83;;;3.50;;
7142;SDS011;3613;48.902;9.204;2022-09-01T14:04:29;4.00;;;3.60;;
7142;SDS011;3613;48.902;9.204;2022-09-01T14:06:55;3.50;;;3.03;;
7142;SDS011;3613;48.902;9.204;2022-09-01T14:09:23;3.77;;;3.37;;
7142;SDS011;3613;48.902;9.204;2022-09-01T14:11:51;3.23;;;2.97;;
7142;SDS011;3613;48.902;9.204;2022-09-01T14:14:22;4.10;;;3.80;;
7142;SDS011;3613;48.902;9.204;2022-09-01T14:16:47;3.63;;;3.33;;
7142;SDS011;3613;48.902;9.204;2022-09-01T14:19:15;3.53;;;3.23;;
7142;SDS011;3613;48.902;9.204;2022-09-01T14:21:41;3.70;;;3.40;;
7142;SDS011;3613;48.902;9.204;2022-09-01T14:24:11;3.63;;;2.87;;
7142;SDS011;3613;48.902;9.204;2022-09-01T14:26:36;4.13;;;3.40;;
7142;SDS011;3613;48.902;9.204;2022-09-01T14:29:04;4.00;;;3.53;;
7142;SDS011;3613;48.902;9.204;2022-09-01T14:31:29;3.80;;;3.50;;
7142;SDS011;3613;48.902;9.204;2022-09-01T14:33:56;3.97;;;3.47;;
7142;SDS011;3613;48.902;9.204;2022-09-01T14:36:22;4.10;;;3.20;;
7142;SDS011;3613;48.902;9.204;2022-09-01T14:38:51;4.07;;;3.63;;
7142;SDS011;3613;48.902;9.204;2022-09-01T14:41:21;3.70;;;3.40;;
7142;SDS011;3613;48.902;9.204;2022-09-01T14:43:51;3.17;;;2.93;;
7142;SDS011;3613;48.902;9.204;2022-09-01T14:46:23;3.53;;;3.23;;
7142;SDS011;3613;48.902;9.204;2022-09-01T14:48:51;3.80;;;3.50;;
7142;SDS011;3613;48.902;9.204;2022-09-01T14:51:21;4.30;;;3.50;;
7142;SDS011;3613;48.902;9.204;2022-09-01T14:53:52;3.70;;;3.40;;
7142;SDS011;3613;48.902;9.204;2022-09-01T14:56:19;3.83;;;3.40;;
7142;SDS011;3613;48.902;9.204;2022-09-01T14:58:46;4.93;;;3.47;;
7142;SDS011;3613;48.902;9.204;2022-09-01T15:01:14;3.77;;;3.00;;
7142;SDS011;3613;48.902;9.204;2022-09-01T15:03:42;3.77;;;3.10;;
7142;SDS011;3613;48.902;9.204;2022-09-01T15:06:10;3.90;;;2.93;;
7142;SDS011;3613;48.902;9.204;2022-09-01T15:08:40;4.33;;;3.10;;
7142;SDS011;3613;48.902;9.204;2022-09-01T15:11:13;4.03;;;3.30;;
7142;SDS011;3613;48.902;9.204;2022-09-01T15:13:45;3.67;;;3.23;;
7142;SDS011;3613;48.902;9.204;2022-09-01T15:16:22;3.73;;;3.10;;
7142;SDS011;3613;48.902;9.204;2022-09-01T15:18:49;3.50;;;2.87;;
7142;SDS011;3613;48.902;9.204;2022-09-01T15:21:17;3.60;;;3.30;;
7142;SDS011;3613;48.902;9.204;2022-09-01T15:23:46;3.33;;;3.13;;
7142;SDS011;3613;48.902;9.204;2022-09-01T15:26:17;3.67;;;2.97;;
7142;SDS011;3613;48.902;9.204;2022-09-01T15:28:43;3.40;;;3.10;;
7142;SDS011;3613;48.902;9.204;2022-09-01T15:31:11;3.50;;;2.97;;
7142;SDS011;3613;48.902;9.204;2022-09-01T15:33:38;3.80;;;3.00;;
7142;SDS011;3613;48.902;9.204;2022-09-01T15:36:05;3.27;;;2.97;;
7142;SDS011;3613;48.902;9.204;2022-09-01T15:38:32;2.93;;;2.73;;
7142;SDS011;3613;48.902;9.204;2022-09-01T15:41:01;3.87;;;3.00;;
7142;SDS011;3613;48.902;9.204;2022-09-01T15:43:29;2.67;;;2.47;;
7142;SDS011;3613;48.902;9.204;2022-09-01T15:46:02;3.20;;;2.80;;
7142;SDS011;3613;48.902;9.204;2022-09-01T15:48:30;4.77;;;3.00;;
7142;SDS011;3613;48.902;9.204;2022-09-01T15:53:49;3.67;;;3.37;;
7142;SDS011;3613;48.902;9.204;2022-09-01T15:56:16;3.47;;;2.87;;
7142;SDS011;3613;48.902;9.204;2022-09-01T15:58:42;3.03;;;2.83;;
7142;SDS011;3613;48.902;9.204;2022-09-01T16:01:11;3.70;;;3.20;;
7142;SDS011;3613;48.902;9.204;2022-09-01T16:03:39;3.57;;;3.23;;
7142;SDS011;3613;48.902;9.204;2022-09-01T16:06:05;3.50;;;2.80;;
7142;SDS011;3613;48.902;9.204;2022-09-01T16:08:31;4.13;;;3.07;;
7142;SDS011;3613;48.902;9.204;2022-09-01T16:10:58;3.33;;;2.80;;
7142;SDS011;3613;48.902;9.204;2022-09-01T16:13:26;3.30;;;3.00;;
7142;SDS011;3613;48.902;9.204;2022-09-01T16:15:59;3.57;;;3.27;;
7142;SDS011;3613;48.902;9.204;2022-09-01T16:18:54;3.17;;;2.87;;
7142;SDS011;3613;48.902;9.204;2022-09-01T16:21:37;3.40;;;2.80;;
7142;SDS011;3613;48.902;9.204;2022-09-01T16:24:17;3.87;;;3.53;;
7142;SDS011;3613;48.902;9.204;2022-09-01T16:26:45;3.63;;;3.33;;
7142;SDS011;3613;48.902;9.204;2022-09-01T16:29:26;4.03;;;3.60;;
7142;SDS011;3613;48.902;9.204;2022-09-01T16:31:58;4.40;;;4.00;;
7142;SDS011;3613;48.902;9.204;2022-09-01T16:34:26;4.20;;;3.90;;
7142;SDS011;3613;48.902;9.204;2022-09-01T16:36:55;5.03;;;3.90;;